sensor_id;sensor_type;location;lat;lon;timestamp;P1;durP1;ratioP1;P2;durP2;ratioP2
32292;SDS011;43233;48.608;8.838;2024-02-15T00:01:30;7.40;;;3.83;;
32292;SDS011;43233;48.608;8.838;2024-02-15T00:03:56;4.30;;;2.60;;
32292;SDS011;43233;48.608;8.838;2024-02-15T00:06:22;5.53;;;2.30;;
32292;SDS011;43233;48.608;8.838;2024-02-15T00:08:48;1.90;;;1.80;;
32292;SDS011;43233;48.608;8.838;2024-02-15T00:11:17;4.90;;;3.20;;
32292;SDS011;43233;48.608;8.838;2024-02-15T00:13:43;3.70;;;2.53;;
32292;SDS011;43233;48.608;8.838;2024-02-15T00:16:12;2.87;;;2.50;;
32292;SDS011;43233;48.608;8.838;2024-02-15T00:18:38;4.67;;;2.70;;
32292;SDS011;43233;48.608;8.838;2024-02-15T00:21:04;7.80;;;2.77;;
32292;SDS011;43233;48.608;8.838;2024-02-15T00:23:30;6.30;;;2.80;;
32292;SDS011;43233;48.608;8.838;2024-02-15T00:25:57;4.27;;;3.47;;
32292;SDS011;43233;48.608;8.838;2024-02-15T00:28:23;4.23;;;3.83;;
32292;SDS011;43233;48.608;8.838;2024-02-15T00:30:49;7.13;;;4.03;;
32292;SDS011;43233;48.608;8.838;2024-02-15T00:33:15;6.10;;;4.23;;
32292;SDS011;43233;48.608;8.838;2024-02-15T00:35:41;4.87;;;4.23;;
32292;SDS011;43233;48.608;8.838;2024-02-15T00:38:07;8.10;;;3.87;;
32292;SDS011;43233;48.608;8.838;2024-02-15T00:40:33;5.40;;;4.03;;
32292;SDS011;43233;48.608;8.838;2024-02-15T00:42:58;4.80;;;3.90;;
32292;SDS011;43233;48.608;8.838;2024-02-15T00:45:24;6.60;;;3.80;;
32292;SDS011;43233;48.608;8.838;2024-02-15T00:47:50;10.03;;;4.53;;
32292;SDS011;43233;48.608;8.838;2024-02-15T00:50:16;5.53;;;3.97;;
32292;SDS011;43233;48.608;8.838;2024-02-15T00:52:42;5.57;;;3.83;;
32292;SDS011;43233;48.608;8.838;2024-02-15T00:55:08;5.20;;;3.97;;
32292;SDS011;43233;48.608;8.838;2024-02-15T00:57:33;4.60;;;3.90;;
32292;SDS011;43233;48.608;8.838;2024-02-15T00:59:59;6.50;;;4.70;;
32292;SDS011;43233;48.608;8.838;2024-02-15T01:02:25;4.47;;;3.47;;
32292;SDS011;43233;48.608;8.838;2024-02-15T01:04:51;10.30;;;4.30;;
32292;SDS011;43233;48.608;8.838;2024-02-15T01:07:18;5.33;;;4.30;;
32292;SDS011;43233;48.608;8.838;2024-02-15T01:09:44;10.33;;;5.83;;
32292;SDS011;43233;48.608;8.838;2024-02-15T01:12:10;7.47;;;5.57;;
32292;SDS011;43233;48.608;8.838;2024-02-15T01:14:36;7.73;;;4.13;;
32292;SDS011;43233;48.608;8.838;2024-02-15T01:17:02;4.00;;;3.50;;
32292;SDS011;43233;48.608;8.838;2024-02-15T01:19:28;7.30;;;4.03;;
32292;SDS011;43233;48.608;8.838;2024-02-15T01:21:53;7.07;;;4.03;;
32292;SDS011;43233;48.608;8.838;2024-02-15T01:24:19;3.17;;;2.90;;
32292;SDS011;43233;48.608;8.838;2024-02-15T01:26:44;4.00;;;3.50;;
32292;SDS011;43233;48.608;8.838;2024-02-15T01:29:12;4.43;;;3.00;;
32292;SDS011;43233;48.608;8.838;2024-02-15T01:31:38;4.80;;;3.60;;
32292;SDS011;43233;48.608;8.838;2024-02-15T01:34:04;7.87;;;3.80;;
32292;SDS011;43233;48.608;8.838;2024-02-15T01:36:29;5.60;;;3.60;;
32292;SDS011;43233;48.608;8.838;2024-02-15T01:38:55;8.40;;;3.83;;
32292;SDS011;43233;48.608;8.838;2024-02-15T01:41:21;3.80;;;3.37;;
32292;SDS011;43233;48.608;8.838;2024-02-15T01:43:47;6.60;;;3.67;;
32292;SDS011;43233;48.608;8.838;2024-02-15T01:46:13;9.43;;;4.60;;
32292;SDS011;43233;48.608;8.838;2024-02-15T01:48:40;10.57;;;4.50;;
32292;SDS011;43233;48.608;8.838;2024-02-15T01:51:07;9.60;;;3.60;;
32292;SDS011;43233;48.608;8.838;2024-02-15T01:53:35;5.90;;;3.50;;
32292;SDS011;43233;48.608;8.838;2024-02-15T01:56:00;4.97;;;3.30;;
32292;SDS011;43233;48.608;8.838;2024-02-15T01:58:27;5.30;;;3.00;;
32292;SDS011;43233;48.608;8.838;2024-02-15T02:00:53;3.63;;;2.80;;
32292;SDS011;43233;48.608;8.838;2024-02-15T02:03:21;4.10;;;2.90;;
32292;SDS011;43233;48.608;8.838;2024-02-15T02:05:47;7.50;;;2.53;;
32292;SDS011;43233;48.608;8.838;2024-02-15T02:08:13;3.93;;;2.90;;
32292;SDS011;43233;48.608;8.838;2024-02-15T02:10:39;3.07;;;2.70;;
32292;SDS011;43233;48.608;8.838;2024-02-15T02:13:05;4.67;;;2.40;;
32292;SDS011;43233;48.608;8.838;2024-02-15T02:15:31;4.63;;;3.10;;
32292;SDS011;43233;48.608;8.838;2024-02-15T02:17:57;5.97;;;2.47;;
32292;SDS011;43233;48.608;8.838;2024-02-15T02:20:26;3.00;;;2.70;;
32292;SDS011;43233;48.608;8.838;2024-02-15T02:22:53;5.00;;;2.80;;
32292;SDS011;43233;48.608;8.838;2024-02-15T02:25:21;3.07;;;2.40;;
32292;SDS011;43233;48.608;8.838;2024-02-15T02:27:51;3.97;;;2.83;;
32292;SDS011;43233;48.608;8.838;2024-02-15T02:30:17;3.30;;;2.40;;
32292;SDS011;43233;48.608;8.838;2024-02-15T02:32:44;5.10;;;2.77;;
32292;SDS011;43233;48.608;8.838;2024-02-15T02:35:11;7.03;;;2.97;;
32292;SDS011;43233;48.608;8.838;2024-02-15T02:37:38;2.97;;;2.63;;
32292;SDS011;43233;48.608;8.838;2024-02-15T02:40:05;3.77;;;2.80;;
32292;SDS011;43233;48.608;8.838;2024-02-15T02:42:34;5.10;;;3.23;;
32292;SDS011;43233;48.608;8.838;2024-02-15T02:45:16;6.90;;;3.43;;
32292;SDS011;43233;48.608;8.838;2024-02-15T02:47:44;6.33;;;2.77;;
32292;SDS011;43233;48.608;8.838;2024-02-15T02:50:12;3.10;;;2.83;;
32292;SDS011;43233;48.608;8.838;2024-02-15T02:52:38;5.70;;;2.90;;
32292;SDS011;43233;48.608;8.838;2024-02-15T02:55:04;6.37;;;3.07;;
32292;SDS011;43233;48.608;8.838;2024-02-15T02:57:33;3.60;;;3.30;;
32292;SDS011;43233;48.608;8.838;2024-02-15T03:00:07;5.10;;;2.83;;
32292;SDS011;43233;48.608;8.838;2024-02-15T03:02:37;4.00;;;3.37;;
32292;SDS011;43233;48.608;8.838;2024-02-15T03:05:04;5.13;;;3.53;;
32292;SDS011;43233;48.608;8.838;2024-02-15T03:07:34;4.70;;;3.37;;
32292;SDS011;43233;48.608;8.838;2024-02-15T03:10:03;4.83;;;3.03;;
32292;SDS011;43233;48.608;8.838;2024-02-15T03:12:29;7.17;;;3.60;;
32292;SDS011;43233;48.608;8.838;2024-02-15T03:14:55;5.43;;;4.17;;
32292;SDS011;43233;48.608;8.838;2024-02-15T03:17:22;3.40;;;3.13;;
32292;SDS011;43233;48.608;8.838;2024-02-15T03:19:48;7.03;;;3.10;;
32292;SDS011;43233;48.608;8.838;2024-02-15T03:22:14;4.30;;;3.90;;
32292;SDS011;43233;48.608;8.838;2024-02-15T03:24:40;3.77;;;3.43;;
32292;SDS011;43233;48.608;8.838;2024-02-15T03:27:05;4.20;;;3.57;;
32292;SDS011;43233;48.608;8.838;2024-02-15T03:29:32;8.20;;;3.30;;
32292;SDS011;43233;48.608;8.838;2024-02-15T03:32:00;4.50;;;3.73;;
32292;SDS011;43233;48.608;8.838;2024-02-15T03:34:27;4.40;;;3.47;;
32292;SDS011;43233;48.608;8.838;2024-02-15T03:36:53;5.03;;;3.50;;
32292;SDS011;43233;48.608;8.838;2024-02-15T03:39:19;5.83;;;3.70;;
32292;SDS011;43233;48.608;8.838;2024-02-15T03:41:45;4.30;;;3.13;;
32292;SDS011;43233;48.608;8.838;2024-02-15T03:44:14;4.43;;;3.47;;
32292;SDS011;43233;48.608;8.838;2024-02-15T03:46:39;3.20;;;2.90;;
32292;SDS011;43233;48.608;8.838;2024-02-15T03:49:05;6.80;;;4.23;;
32292;SDS011;43233;48.608;8.838;2024-02-15T03:51:33;4.70;;;4.13;;
32292;SDS011;43233;48.608;8.838;2024-02-15T03:54:01;4.10;;;3.70;;
32292;SDS011;43233;48.608;8.838;2024-02-15T03:56:29;6.17;;;3.60;;
32292;SDS011;43233;48.608;8.838;2024-02-15T03:58:57;4.17;;;3.77;;
32292;SDS011;43233;48.608;8.838;2024-02-15T04:01:23;3.80;;;3.40;;
32292;SDS011;43233;48.608;8.838;2024-02-15T04:03:49;4.13;;;3.73;;
32292;SDS011;43233;48.608;8.838;2024-02-15T04:06:15;8.40;;;4.17;;
32292;SDS011;43233;48.608;8.838;2024-02-15T04:08:41;4.17;;;3.80;;
32292;SDS011;43233;48.608;8.838;2024-02-15T04:11:06;4.07;;;3.10;;
32292;SDS011;43233;48.608;8.838;2024-02-15T04:13:35;3.80;;;3.03;;
32292;SDS011;43233;48.608;8.838;2024-02-15T04:16:00;4.40;;;3.20;;
32292;SDS011;43233;48.608;8.838;2024-02-15T04:18:26;3.30;;;3.00;;
32292;SDS011;43233;48.608;8.838;2024-02-15T04:20:52;2.97;;;2.67;;
32292;SDS011;43233;48.608;8.838;2024-02-15T04:23:17;2.40;;;2.17;;
32292;SDS011;43233;48.608;8.838;2024-02-15T04:25:44;4.63;;;2.20;;
32292;SDS011;43233;48.608;8.838;2024-02-15T04:28:15;4.20;;;2.37;;
32292;SDS011;43233;48.608;8.838;2024-02-15T04:30:41;3.87;;;2.23;;
32292;SDS011;43233;48.608;8.838;2024-02-15T04:33:07;5.90;;;2.77;;
32292;SDS011;43233;48.608;8.838;2024-02-15T04:35:33;3.93;;;2.93;;
32292;SDS011;43233;48.608;8.838;2024-02-15T04:37:59;3.63;;;2.60;;
32292;SDS011;43233;48.608;8.838;2024-02-15T04:40:24;4.93;;;2.63;;
32292;SDS011;43233;48.608;8.838;2024-02-15T04:42:50;3.70;;;3.27;;
32292;SDS011;43233;48.608;8.838;2024-02-15T04:45:17;4.60;;;3.07;;
32292;SDS011;43233;48.608;8.838;2024-02-15T04:47:43;5.80;;;3.00;;
32292;SDS011;43233;48.608;8.838;2024-02-15T04:50:14;4.93;;;3.53;;
32292;SDS011;43233;48.608;8.838;2024-02-15T04:52:43;3.57;;;3.37;;
32292;SDS011;43233;48.608;8.838;2024-02-15T04:55:10;6.23;;;3.97;;
32292;SDS011;43233;48.608;8.838;2024-02-15T04:57:36;3.60;;;3.30;;
32292;SDS011;43233;48.608;8.838;2024-02-15T05:00:02;7.60;;;3.83;;
32292;SDS011;43233;48.608;8.838;2024-02-15T05:02:35;3.97;;;3.50;;
32292;SDS011;43233;48.608;8.838;2024-02-15T05:05:05;5.57;;;4.53;;
32292;SDS011;43233;48.608;8.838;2024-02-15T05:07:32;6.13;;;4.10;;
32292;SDS011;43233;48.608;8.838;2024-02-15T05:09:59;4.00;;;3.60;;
32292;SDS011;43233;48.608;8.838;2024-02-15T05:12:27;4.50;;;4.03;;
32292;SDS011;43233;48.608;8.838;2024-02-15T05:14:52;3.90;;;3.30;;
32292;SDS011;43233;48.608;8.838;2024-02-15T05:17:18;4.27;;;3.70;;
32292;SDS011;43233;48.608;8.838;2024-02-15T05:19:44;4.30;;;3.60;;
32292;SDS011;43233;48.608;8.838;2024-02-15T05:22:10;4.70;;;4.30;;
32292;SDS011;43233;48.608;8.838;2024-02-15T05:24:36;5.67;;;3.63;;
32292;SDS011;43233;48.608;8.838;2024-02-15T05:27:03;4.70;;;3.77;;
32292;SDS011;43233;48.608;8.838;2024-02-15T05:29:29;4.33;;;3.93;;
32292;SDS011;43233;48.608;8.838;2024-02-15T05:31:59;4.00;;;3.70;;
32292;SDS011;43233;48.608;8.838;2024-02-15T05:34:25;11.10;;;4.03;;
32292;SDS011;43233;48.608;8.838;2024-02-15T05:36:51;4.43;;;4.03;;
32292;SDS011;43233;48.608;8.838;2024-02-15T05:39:17;3.90;;;3.57;;
32292;SDS011;43233;48.608;8.838;2024-02-15T05:41:46;4.50;;;2.90;;
32292;SDS011;43233;48.608;8.838;2024-02-15T05:44:12;6.47;;;4.27;;
32292;SDS011;43233;48.608;8.838;2024-02-15T05:46:39;3.90;;;3.50;;
32292;SDS011;43233;48.608;8.838;2024-02-15T05:49:05;3.63;;;3.30;;
32292;SDS011;43233;48.608;8.838;2024-02-15T05:51:31;3.83;;;3.50;;
32292;SDS011;43233;48.608;8.838;2024-02-15T05:53:57;6.17;;;3.40;;
32292;SDS011;43233;48.608;8.838;2024-02-15T05:56:27;3.40;;;3.10;;
32292;SDS011;43233;48.608;8.838;2024-02-15T05:58:54;4.53;;;3.40;;
32292;SDS011;43233;48.608;8.838;2024-02-15T06:01:19;4.87;;;4.10;;
32292;SDS011;43233;48.608;8.838;2024-02-15T06:03:45;4.33;;;3.93;;
32292;SDS011;43233;48.608;8.838;2024-02-15T06:06:13;6.53;;;3.40;;
32292;SDS011;43233;48.608;8.838;2024-02-15T06:08:38;5.33;;;3.17;;
32292;SDS011;43233;48.608;8.838;2024-02-15T06:11:04;5.40;;;3.53;;
32292;SDS011;43233;48.608;8.838;2024-02-15T06:13:34;6.50;;;4.63;;
32292;SDS011;43233;48.608;8.838;2024-02-15T06:16:00;6.00;;;3.60;;
32292;SDS011;43233;48.608;8.838;2024-02-15T06:18:27;5.10;;;4.20;;
32292;SDS011;43233;48.608;8.838;2024-02-15T06:20:54;8.83;;;3.80;;
32292;SDS011;43233;48.608;8.838;2024-02-15T06:23:24;9.97;;;4.03;;
32292;SDS011;43233;48.608;8.838;2024-02-15T06:25:52;6.50;;;4.33;;
32292;SDS011;43233;48.608;8.838;2024-02-15T06:28:19;6.00;;;4.87;;
32292;SDS011;43233;48.608;8.838;2024-02-15T06:31:04;5.70;;;4.40;;
32292;SDS011;43233;48.608;8.838;2024-02-15T06:33:49;6.20;;;4.13;;
32292;SDS011;43233;48.608;8.838;2024-02-15T06:36:33;8.03;;;4.90;;
32292;SDS011;43233;48.608;8.838;2024-02-15T06:39:17;5.20;;;4.10;;
32292;SDS011;43233;48.608;8.838;2024-02-15T06:42:02;4.20;;;3.50;;
32292;SDS011;43233;48.608;8.838;2024-02-15T06:44:27;5.17;;;3.77;;
32292;SDS011;43233;48.608;8.838;2024-02-15T06:46:54;5.03;;;3.83;;
32292;SDS011;43233;48.608;8.838;2024-02-15T06:49:20;16.83;;;4.53;;
32292;SDS011;43233;48.608;8.838;2024-02-15T06:51:49;10.30;;;4.10;;
32292;SDS011;43233;48.608;8.838;2024-02-15T06:54:14;6.33;;;4.20;;
32292;SDS011;43233;48.608;8.838;2024-02-15T06:56:40;4.60;;;4.00;;
32292;SDS011;43233;48.608;8.838;2024-02-15T06:59:06;14.23;;;4.37;;
32292;SDS011;43233;48.608;8.838;2024-02-15T07:01:32;8.73;;;4.60;;
32292;SDS011;43233;48.608;8.838;2024-02-15T07:03:59;6.33;;;4.90;;
32292;SDS011;43233;48.608;8.838;2024-02-15T07:06:25;11.03;;;6.23;;
32292;SDS011;43233;48.608;8.838;2024-02-15T07:08:52;8.93;;;5.53;;
32292;SDS011;43233;48.608;8.838;2024-02-15T07:11:20;8.60;;;4.40;;
32292;SDS011;43233;48.608;8.838;2024-02-15T07:13:46;4.30;;;3.90;;
32292;SDS011;43233;48.608;8.838;2024-02-15T07:16:12;3.87;;;3.53;;
32292;SDS011;43233;48.608;8.838;2024-02-15T07:18:40;5.17;;;3.50;;
32292;SDS011;43233;48.608;8.838;2024-02-15T07:21:05;4.47;;;3.90;;
32292;SDS011;43233;48.608;8.838;2024-02-15T07:23:36;3.97;;;3.60;;
32292;SDS011;43233;48.608;8.838;2024-02-15T07:26:02;7.47;;;4.70;;
32292;SDS011;43233;48.608;8.838;2024-02-15T07:28:28;5.67;;;3.67;;
32292;SDS011;43233;48.608;8.838;2024-02-15T07:30:55;4.17;;;3.57;;
32292;SDS011;43233;48.608;8.838;2024-02-15T07:33:22;5.37;;;4.50;;
32292;SDS011;43233;48.608;8.838;2024-02-15T07:35:48;6.33;;;4.37;;
32292;SDS011;43233;48.608;8.838;2024-02-15T07:38:16;6.53;;;4.03;;
32292;SDS011;43233;48.608;8.838;2024-02-15T07:40:42;3.93;;;3.43;;
32292;SDS011;43233;48.608;8.838;2024-02-15T07:43:09;6.27;;;3.70;;
32292;SDS011;43233;48.608;8.838;2024-02-15T07:45:35;5.20;;;3.70;;
32292;SDS011;43233;48.608;8.838;2024-02-15T07:48:02;9.83;;;4.47;;
32292;SDS011;43233;48.608;8.838;2024-02-15T07:50:29;4.53;;;4.10;;
32292;SDS011;43233;48.608;8.838;2024-02-15T07:52:55;8.90;;;4.13;;
32292;SDS011;43233;48.608;8.838;2024-02-15T07:55:21;5.83;;;4.07;;
32292;SDS011;43233;48.608;8.838;2024-02-15T07:57:49;8.07;;;6.30;;
32292;SDS011;43233;48.608;8.838;2024-02-15T08:00:18;4.70;;;4.20;;
32292;SDS011;43233;48.608;8.838;2024-02-15T08:02:44;3.87;;;3.47;;
32292;SDS011;43233;48.608;8.838;2024-02-15T08:05:10;4.67;;;4.20;;
32292;SDS011;43233;48.608;8.838;2024-02-15T08:07:37;5.70;;;3.73;;
32292;SDS011;43233;48.608;8.838;2024-02-15T08:10:06;11.50;;;4.30;;
32292;SDS011;43233;48.608;8.838;2024-02-15T08:12:37;6.70;;;4.20;;
32292;SDS011;43233;48.608;8.838;2024-02-15T08:15:06;5.23;;;4.27;;
32292;SDS011;43233;48.608;8.838;2024-02-15T08:17:37;5.73;;;5.10;;
32292;SDS011;43233;48.608;8.838;2024-02-15T08:20:14;9.47;;;5.37;;
32292;SDS011;43233;48.608;8.838;2024-02-15T08:22:46;6.00;;;4.60;;
32292;SDS011;43233;48.608;8.838;2024-02-15T08:25:12;7.00;;;4.97;;
32292;SDS011;43233;48.608;8.838;2024-02-15T08:27:41;5.33;;;4.60;;
32292;SDS011;43233;48.608;8.838;2024-02-15T08:30:09;6.50;;;4.93;;
32292;SDS011;43233;48.608;8.838;2024-02-15T08:32:39;5.83;;;4.50;;
32292;SDS011;43233;48.608;8.838;2024-02-15T08:35:06;5.90;;;4.50;;
32292;SDS011;43233;48.608;8.838;2024-02-15T08:37:33;6.93;;;4.90;;
32292;SDS011;43233;48.608;8.838;2024-02-15T08:40:00;8.33;;;4.77;;
32292;SDS011;43233;48.608;8.838;2024-02-15T08:42:41;6.53;;;5.03;;
32292;SDS011;43233;48.608;8.838;2024-02-15T08:45:08;5.30;;;4.80;;
32292;SDS011;43233;48.608;8.838;2024-02-15T08:47:35;5.40;;;4.83;;
32292;SDS011;43233;48.608;8.838;2024-02-15T08:50:02;5.20;;;4.70;;
32292;SDS011;43233;48.608;8.838;2024-02-15T08:52:29;6.43;;;5.17;;
32292;SDS011;43233;48.608;8.838;2024-02-15T08:54:55;5.93;;;4.40;;
32292;SDS011;43233;48.608;8.838;2024-02-15T08:57:22;6.70;;;4.03;;
32292;SDS011;43233;48.608;8.838;2024-02-15T08:59:49;8.20;;;4.50;;
32292;SDS011;43233;48.608;8.838;2024-02-15T09:02:16;7.20;;;4.50;;
32292;SDS011;43233;48.608;8.838;2024-02-15T09:04:42;4.43;;;4.00;;
32292;SDS011;43233;48.608;8.838;2024-02-15T09:07:08;8.60;;;4.20;;
32292;SDS011;43233;48.608;8.838;2024-02-15T09:09:34;4.60;;;3.83;;
32292;SDS011;43233;48.608;8.838;2024-02-15T09:12:02;5.10;;;4.13;;
32292;SDS011;43233;48.608;8.838;2024-02-15T09:14:34;7.50;;;4.03;;
32292;SDS011;43233;48.608;8.838;2024-02-15T09:17:01;4.20;;;3.80;;
32292;SDS011;43233;48.608;8.838;2024-02-15T09:19:32;6.07;;;4.10;;
32292;SDS011;43233;48.608;8.838;2024-02-15T09:21:59;4.27;;;3.80;;
32292;SDS011;43233;48.608;8.838;2024-02-15T09:24:25;4.30;;;3.00;;
32292;SDS011;43233;48.608;8.838;2024-02-15T09:26:51;6.90;;;2.63;;
32292;SDS011;43233;48.608;8.838;2024-02-15T09:29:17;5.20;;;3.13;;
32292;SDS011;43233;48.608;8.838;2024-02-15T09:31:46;3.73;;;3.20;;
32292;SDS011;43233;48.608;8.838;2024-02-15T09:34:14;6.07;;;3.70;;
32292;SDS011;43233;48.608;8.838;2024-02-15T09:36:40;5.30;;;3.10;;
32292;SDS011;43233;48.608;8.838;2024-02-15T09:39:05;4.20;;;3.17;;
32292;SDS011;43233;48.608;8.838;2024-02-15T09:41:31;3.17;;;2.90;;
32292;SDS011;43233;48.608;8.838;2024-02-15T09:43:58;4.40;;;3.13;;
32292;SDS011;43233;48.608;8.838;2024-02-15T09:46:26;5.07;;;3.60;;
32292;SDS011;43233;48.608;8.838;2024-02-15T09:48:52;6.47;;;3.33;;
32292;SDS011;43233;48.608;8.838;2024-02-15T09:51:25;5.10;;;3.07;;
32292;SDS011;43233;48.608;8.838;2024-02-15T09:53:52;3.30;;;3.00;;
32292;SDS011;43233;48.608;8.838;2024-02-15T09:56:19;6.90;;;3.83;;
32292;SDS011;43233;48.608;8.838;2024-02-15T09:58:46;5.30;;;3.63;;
32292;SDS011;43233;48.608;8.838;2024-02-15T10:01:12;4.77;;;3.83;;
32292;SDS011;43233;48.608;8.838;2024-02-15T10:03:39;5.20;;;4.20;;
32292;SDS011;43233;48.608;8.838;2024-02-15T10:06:06;7.07;;;4.27;;
32292;SDS011;43233;48.608;8.838;2024-02-15T10:08:32;8.43;;;4.07;;
32292;SDS011;43233;48.608;8.838;2024-02-15T10:11:07;5.87;;;3.70;;
32292;SDS011;43233;48.608;8.838;2024-02-15T10:13:33;6.90;;;3.80;;
32292;SDS011;43233;48.608;8.838;2024-02-15T10:16:01;5.60;;;4.20;;
32292;SDS011;43233;48.608;8.838;2024-02-15T10:18:39;11.10;;;3.57;;
32292;SDS011;43233;48.608;8.838;2024-02-15T10:21:04;3.27;;;2.70;;
32292;SDS011;43233;48.608;8.838;2024-02-15T10:23:30;6.00;;;3.07;;
32292;SDS011;43233;48.608;8.838;2024-02-15T10:25:55;4.33;;;2.90;;
32292;SDS011;43233;48.608;8.838;2024-02-15T10:28:23;3.80;;;3.50;;
32292;SDS011;43233;48.608;8.838;2024-02-15T10:30:49;4.00;;;3.27;;
32292;SDS011;43233;48.608;8.838;2024-02-15T10:33:18;5.27;;;3.03;;
32292;SDS011;43233;48.608;8.838;2024-02-15T10:35:45;5.23;;;3.00;;
32292;SDS011;43233;48.608;8.838;2024-02-15T10:38:11;3.13;;;2.83;;
32292;SDS011;43233;48.608;8.838;2024-02-15T10:40:38;6.40;;;2.50;;
32292;SDS011;43233;48.608;8.838;2024-02-15T10:43:06;4.60;;;3.13;;
32292;SDS011;43233;48.608;8.838;2024-02-15T10:45:34;4.07;;;2.97;;
32292;SDS011;43233;48.608;8.838;2024-02-15T10:48:01;3.73;;;1.93;;
32292;SDS011;43233;48.608;8.838;2024-02-15T10:50:29;3.83;;;2.60;;
32292;SDS011;43233;48.608;8.838;2024-02-15T10:52:58;2.70;;;2.50;;
32292;SDS011;43233;48.608;8.838;2024-02-15T10:56:10;3.87;;;2.23;;
32292;SDS011;43233;48.608;8.838;2024-02-15T10:58:32;5.90;;;2.90;;
32292;SDS011;43233;48.608;8.838;2024-02-15T11:01:03;2.50;;;2.30;;
32292;SDS011;43233;48.608;8.838;2024-02-15T11:03:36;4.17;;;2.03;;
32292;SDS011;43233;48.608;8.838;2024-02-15T11:06:12;3.20;;;2.63;;
32292;SDS011;43233;48.608;8.838;2024-02-15T11:08:39;7.10;;;2.40;;
32292;SDS011;43233;48.608;8.838;2024-02-15T11:11:06;2.37;;;2.17;;
32292;SDS011;43233;48.608;8.838;2024-02-15T11:13:32;3.40;;;2.30;;
32292;SDS011;43233;48.608;8.838;2024-02-15T11:15:58;3.70;;;2.50;;
32292;SDS011;43233;48.608;8.838;2024-02-15T11:21:16;3.13;;;1.47;;
32292;SDS011;43233;48.608;8.838;2024-02-15T11:27:01;2.80;;;2.43;;
32292;SDS011;43233;48.608;8.838;2024-02-15T11:43:06;2.90;;;2.40;;
32292;SDS011;43233;48.608;8.838;2024-02-15T11:45:33;4.10;;;2.07;;
32292;SDS011;43233;48.608;8.838;2024-02-15T11:48:07;6.23;;;2.57;;
32292;SDS011;43233;48.608;8.838;2024-02-15T11:50:37;6.40;;;2.80;;
32292;SDS011;43233;48.608;8.838;2024-02-15T11:53:05;2.30;;;2.10;;
32292;SDS011;43233;48.608;8.838;2024-02-15T11:55:34;3.60;;;2.43;;
32292;SDS011;43233;48.608;8.838;2024-02-15T11:58:02;4.07;;;2.47;;
32292;SDS011;43233;48.608;8.838;2024-02-15T12:00:30;6.53;;;2.50;;
32292;SDS011;43233;48.608;8.838;2024-02-15T12:03:16;5.00;;;2.20;;
32292;SDS011;43233;48.608;8.838;2024-02-15T12:06:01;2.60;;;2.40;;
32292;SDS011;43233;48.608;8.838;2024-02-15T12:08:45;5.10;;;2.13;;
32292;SDS011;43233;48.608;8.838;2024-02-15T12:11:30;2.03;;;1.93;;
32292;SDS011;43233;48.608;8.838;2024-02-15T12:14:15;4.10;;;1.90;;
32292;SDS011;43233;48.608;8.838;2024-02-15T12:17:03;3.83;;;2.40;;
32292;SDS011;43233;48.608;8.838;2024-02-15T12:19:49;3.30;;;2.13;;
32292;SDS011;43233;48.608;8.838;2024-02-15T12:22:19;4.13;;;2.80;;
32292;SDS011;43233;48.608;8.838;2024-02-15T12:24:56;2.50;;;2.30;;
32292;SDS011;43233;48.608;8.838;2024-02-15T12:27:23;4.63;;;2.30;;
32292;SDS011;43233;48.608;8.838;2024-02-15T12:29:53;4.20;;;2.60;;
32292;SDS011;43233;48.608;8.838;2024-02-15T12:32:21;3.43;;;2.67;;
32292;SDS011;43233;48.608;8.838;2024-02-15T12:34:47;8.60;;;2.77;;
32292;SDS011;43233;48.608;8.838;2024-02-15T12:37:13;2.27;;;2.07;;
32292;SDS011;43233;48.608;8.838;2024-02-15T12:39:38;3.83;;;2.27;;
32292;SDS011;43233;48.608;8.838;2024-02-15T12:42:06;3.13;;;2.43;;
32292;SDS011;43233;48.608;8.838;2024-02-15T12:44:32;4.63;;;2.77;;
32292;SDS011;43233;48.608;8.838;2024-02-15T12:46:59;5.43;;;2.30;;
32292;SDS011;43233;48.608;8.838;2024-02-15T12:51:51;2.17;;;1.97;;
32292;SDS011;43233;48.608;8.838;2024-02-15T12:54:22;3.83;;;3.30;;
32292;SDS011;43233;48.608;8.838;2024-02-15T12:56:48;5.90;;;3.37;;
32292;SDS011;43233;48.608;8.838;2024-02-15T12:59:14;3.03;;;2.83;;
32292;SDS011;43233;48.608;8.838;2024-02-15T13:01:40;3.67;;;3.10;;
32292;SDS011;43233;48.608;8.838;2024-02-15T13:04:06;3.07;;;2.77;;
32292;SDS011;43233;48.608;8.838;2024-02-15T13:06:33;3.20;;;2.23;;
32292;SDS011;43233;48.608;8.838;2024-02-15T13:09:01;7.63;;;3.03;;
32292;SDS011;43233;48.608;8.838;2024-02-15T13:11:30;2.57;;;2.27;;
32292;SDS011;43233;48.608;8.838;2024-02-15T13:13:57;2.97;;;2.17;;
32292;SDS011;43233;48.608;8.838;2024-02-15T13:16:22;2.90;;;2.37;;
32292;SDS011;43233;48.608;8.838;2024-02-15T13:18:48;2.17;;;2.03;;
32292;SDS011;43233;48.608;8.838;2024-02-15T13:21:14;2.77;;;2.57;;
32292;SDS011;43233;48.608;8.838;2024-02-15T13:23:40;4.00;;;2.33;;
32292;SDS011;43233;48.608;8.838;2024-02-15T13:26:05;3.40;;;2.60;;
32292;SDS011;43233;48.608;8.838;2024-02-15T13:28:33;3.13;;;2.30;;
32292;SDS011;43233;48.608;8.838;2024-02-15T13:30:58;3.93;;;2.27;;
32292;SDS011;43233;48.608;8.838;2024-02-15T13:33:24;5.83;;;2.10;;
32292;SDS011;43233;48.608;8.838;2024-02-15T13:35:51;2.60;;;2.40;;
32292;SDS011;43233;48.608;8.838;2024-02-15T13:38:17;2.83;;;2.37;;
32292;SDS011;43233;48.608;8.838;2024-02-15T13:40:48;7.17;;;2.40;;
32292;SDS011;43233;48.608;8.838;2024-02-15T13:43:17;2.33;;;2.13;;
32292;SDS011;43233;48.608;8.838;2024-02-15T13:45:43;3.20;;;2.10;;
32292;SDS011;43233;48.608;8.838;2024-02-15T13:48:10;9.23;;;3.00;;
32292;SDS011;43233;48.608;8.838;2024-02-15T13:50:39;3.13;;;2.30;;
32292;SDS011;43233;48.608;8.838;2024-02-15T13:53:05;3.60;;;2.50;;
32292;SDS011;43233;48.608;8.838;2024-02-15T13:55:34;4.73;;;2.33;;
32292;SDS011;43233;48.608;8.838;2024-02-15T13:58:00;5.33;;;2.90;;
32292;SDS011;43233;48.608;8.838;2024-02-15T14:00:26;13.60;;;2.87;;
32292;SDS011;43233;48.608;8.838;2024-02-15T14:02:56;3.67;;;2.33;;
32292;SDS011;43233;48.608;8.838;2024-02-15T14:05:23;3.30;;;2.77;;
32292;SDS011;43233;48.608;8.838;2024-02-15T14:07:57;6.57;;;2.70;;
32292;SDS011;43233;48.608;8.838;2024-02-15T14:10:24;4.70;;;2.70;;
32292;SDS011;43233;48.608;8.838;2024-02-15T14:12:52;3.50;;;2.80;;
32292;SDS011;43233;48.608;8.838;2024-02-15T14:15:26;4.67;;;2.70;;
32292;SDS011;43233;48.608;8.838;2024-02-15T14:17:52;5.37;;;2.67;;
32292;SDS011;43233;48.608;8.838;2024-02-15T14:20:18;2.67;;;2.47;;
32292;SDS011;43233;48.608;8.838;2024-02-15T14:22:46;3.63;;;2.50;;
32292;SDS011;43233;48.608;8.838;2024-02-15T14:25:14;6.03;;;2.70;;
32292;SDS011;43233;48.608;8.838;2024-02-15T14:27:44;4.17;;;2.50;;
32292;SDS011;43233;48.608;8.838;2024-02-15T14:30:10;6.53;;;2.57;;
32292;SDS011;43233;48.608;8.838;2024-02-15T14:32:54;3.43;;;2.90;;
32292;SDS011;43233;48.608;8.838;2024-02-15T14:37:59;3.40;;;2.77;;
32292;SDS011;43233;48.608;8.838;2024-02-15T14:40:31;4.53;;;2.57;;
32292;SDS011;43233;48.608;8.838;2024-02-15T14:43:22;2.37;;;2.17;;
32292;SDS011;43233;48.608;8.838;2024-02-15T14:45:48;4.03;;;2.50;;
32292;SDS011;43233;48.608;8.838;2024-02-15T14:48:14;3.73;;;2.10;;
32292;SDS011;43233;48.608;8.838;2024-02-15T14:50:42;7.27;;;2.43;;
32292;SDS011;43233;48.608;8.838;2024-02-15T14:53:09;5.07;;;2.60;;
32292;SDS011;43233;48.608;8.838;2024-02-15T14:55:37;2.53;;;2.33;;
32292;SDS011;43233;48.608;8.838;2024-02-15T14:58:08;7.90;;;2.80;;
32292;SDS011;43233;48.608;8.838;2024-02-15T15:00:34;2.53;;;2.30;;
32292;SDS011;43233;48.608;8.838;2024-02-15T15:03:00;2.70;;;2.20;;
32292;SDS011;43233;48.608;8.838;2024-02-15T15:05:27;2.50;;;2.30;;
32292;SDS011;43233;48.608;8.838;2024-02-15T15:08:11;5.70;;;2.43;;
32292;SDS011;43233;48.608;8.838;2024-02-15T15:10:56;8.47;;;2.67;;
32292;SDS011;43233;48.608;8.838;2024-02-15T15:13:40;2.80;;;2.23;;
32292;SDS011;43233;48.608;8.838;2024-02-15T15:16:06;3.23;;;2.27;;
32292;SDS011;43233;48.608;8.838;2024-02-15T15:18:32;4.53;;;2.40;;